AAL1356 TNCC-KPHL
Flight info
| Callsign | AAL1356 |
|---|---|
| Flight time | 4h 7m |
| Altitude | 40000 |
| Route | KARUM1K KARUM UT17 CDO UM597 GABIM UL453 ASIVO L453 CERDA A554 LAMER/M084F400 L453 SAUCR Y485 HOBOH/N0479F400 DCT LYNUS B24 CORNE |
| Aircraft | B77L/H-SDE1E2E3FGHIJ2J3J4J5M1RWXY/LB1D1 |
Departure
| Time | 2026-04-19 23:40 |
|---|---|
| Airport | Hato International Airport (TNCC) |
Arrival
| Time | 2026-04-20 03:48 |
|---|---|
| Airport | Philadelphia International Airport (KPHL) |
| Time | Latitude | Longitude | Altitude | Speed | Heading |
|---|---|---|---|---|---|
| 2026-04-19 23:09 | 12.18552 | -68.95807 | 47 ft | 0 kts | 192° |
| 2026-04-19 23:28 | 12.18557 | -68.95806 | 47 ft | 2 kts | 192° |
| 2026-04-19 23:28 | 12.18576 | -68.95801 | 47 ft | 3 kts | 192° |
| 2026-04-19 23:29 | 12.18596 | -68.95797 | 47 ft | 3 kts | 192° |
| 2026-04-19 23:29 | 12.18616 | -68.95792 | 47 ft | 3 kts | 192° |
| 2026-04-19 23:29 | 12.18634 | -68.95789 | 47 ft | 2 kts | 192° |
| 2026-04-19 23:29 | 12.18650 | -68.95784 | 47 ft | 3 kts | 210° |
| 2026-04-19 23:30 | 12.18662 | -68.95776 | 47 ft | 3 kts | 245° |
| 2026-04-19 23:30 | 12.18666 | -68.95761 | 47 ft | 3 kts | 277° |
| 2026-04-19 23:30 | 12.18662 | -68.95741 | 47 ft | 2 kts | 283° |
| 2026-04-19 23:30 | 12.18660 | -68.95734 | 47 ft | 0 kts | 282° |
| 2026-04-19 23:32 | 12.18667 | -68.95763 | 47 ft | 7 kts | 282° |
| 2026-04-19 23:33 | 12.18678 | -68.95816 | 47 ft | 11 kts | 282° |
| 2026-04-19 23:33 | 12.18697 | -68.95907 | 47 ft | 14 kts | 282° |
| 2026-04-19 23:33 | 12.18717 | -68.96001 | 47 ft | 14 kts | 282° |
| 2026-04-19 23:33 | 12.18736 | -68.96096 | 47 ft | 14 kts | 282° |
| 2026-04-19 23:34 | 12.18756 | -68.96191 | 47 ft | 14 kts | 282° |
| 2026-04-19 23:34 | 12.18776 | -68.96285 | 47 ft | 14 kts | 282° |
| 2026-04-19 23:34 | 12.18795 | -68.96380 | 47 ft | 14 kts | 282° |
| 2026-04-19 23:34 | 12.18816 | -68.96474 | 47 ft | 14 kts | 282° |
| 2026-04-19 23:35 | 12.18835 | -68.96568 | 46 ft | 14 kts | 282° |
| 2026-04-19 23:35 | 12.18855 | -68.96663 | 46 ft | 14 kts | 282° |
| 2026-04-19 23:35 | 12.18875 | -68.96757 | 46 ft | 14 kts | 282° |
| 2026-04-19 23:35 | 12.18895 | -68.96852 | 45 ft | 14 kts | 282° |
| 2026-04-19 23:36 | 12.18915 | -68.96946 | 45 ft | 14 kts | 282° |
| 2026-04-19 23:36 | 12.18934 | -68.97041 | 45 ft | 14 kts | 282° |
| 2026-04-19 23:36 | 12.18954 | -68.97136 | 45 ft | 14 kts | 282° |
| 2026-04-19 23:36 | 12.18974 | -68.97230 | 44 ft | 14 kts | 282° |
| 2026-04-19 23:37 | 12.18994 | -68.97325 | 44 ft | 14 kts | 282° |
| 2026-04-19 23:37 | 12.19013 | -68.97419 | 42 ft | 14 kts | 282° |
| 2026-04-19 23:37 | 12.19033 | -68.97514 | 44 ft | 14 kts | 282° |
| 2026-04-19 23:37 | 12.19048 | -68.97560 | 44 ft | 4 kts | 304° |
| 2026-04-19 23:38 | 12.19085 | -68.97578 | 44 ft | 10 kts | 353° |
| 2026-04-19 23:38 | 12.19158 | -68.97570 | 44 ft | 11 kts | 10° |
| 2026-04-19 23:38 | 12.19211 | -68.97525 | 44 ft | 11 kts | 79° |
| 2026-04-19 23:38 | 12.19195 | -68.97428 | 44 ft | 23 kts | 102° |
| 2026-04-19 23:39 | 12.19151 | -68.97217 | 44 ft | 32 kts | 102° |
| 2026-04-19 23:39 | 12.19106 | -68.97006 | 44 ft | 30 kts | 102° |
| 2026-04-19 23:39 | 12.19063 | -68.96797 | 45 ft | 30 kts | 102° |
| 2026-04-19 23:39 | 12.19040 | -68.96692 | 46 ft | 0 kts | 103° |
| 2026-04-19 23:40 | 12.19034 | -68.96665 | 47 ft | 23 kts | 103° |
| 2026-04-19 23:40 | 12.18934 | -68.96190 | 49 ft | 114 kts | 102° |
| 2026-04-19 23:40 | 12.18710 | -68.95130 | 224 ft | 176 kts | 101° |
| 2026-04-19 23:40 | 12.18424 | -68.93876 | 1162 ft | 193 kts | 101° |
| 2026-04-19 23:41 | 12.18232 | -68.92948 | 1712 ft | 207 kts | 100° |
| 2026-04-19 23:41 | 12.17923 | -68.91431 | 2213 ft | 224 kts | 100° |
| 2026-04-19 23:41 | 12.17526 | -68.89302 | 2901 ft | 238 kts | 91° |
| 2026-04-19 23:41 | 12.17954 | -68.87641 | 3383 ft | 251 kts | 58° |
| 2026-04-19 23:42 | 12.19237 | -68.86410 | 4069 ft | 261 kts | 30° |
| 2026-04-19 23:42 | 12.20935 | -68.85703 | 4799 ft | 266 kts | 22° |
| 2026-04-19 23:42 | 12.22126 | -68.85252 | 5292 ft | 271 kts | 22° |
| 2026-04-19 23:42 | 12.23909 | -68.84600 | 6090 ft | 274 kts | 21° |
| 2026-04-19 23:43 | 12.25728 | -68.83969 | 6900 ft | 278 kts | 20° |
| 2026-04-19 23:43 | 12.27556 | -68.83366 | 7655 ft | 282 kts | 19° |
| 2026-04-19 23:43 | 12.29444 | -68.82763 | 8387 ft | 286 kts | 18° |
| 2026-04-19 23:43 | 12.31367 | -68.82165 | 9122 ft | 290 kts | 18° |
| 2026-04-19 23:44 | 12.33312 | -68.81568 | 9841 ft | 294 kts | 17° |
| 2026-04-19 23:44 | 12.35297 | -68.80965 | 10405 ft | 305 kts | 17° |
| 2026-04-19 23:44 | 12.37410 | -68.80324 | 10591 ft | 329 kts | 17° |
| 2026-04-19 23:44 | 12.39695 | -68.79635 | 10782 ft | 354 kts | 17° |
| 2026-04-19 23:45 | 12.42129 | -68.78903 | 11154 ft | 371 kts | 17° |
| 2026-04-19 23:45 | 12.44639 | -68.78147 | 11810 ft | 380 kts | 16° |
| 2026-04-19 23:45 | 12.47164 | -68.77389 | 12600 ft | 385 kts | 16° |
| 2026-04-19 23:45 | 12.49741 | -68.76615 | 13449 ft | 388 kts | 16° |
| 2026-04-19 23:46 | 12.52334 | -68.75836 | 14277 ft | 392 kts | 15° |
| 2026-04-19 23:46 | 12.54967 | -68.75044 | 15022 ft | 398 kts | 15° |
| 2026-04-19 23:46 | 12.57641 | -68.74240 | 15804 ft | 403 kts | 15° |
| 2026-04-19 23:46 | 12.60347 | -68.73427 | 16597 ft | 407 kts | 15° |
| 2026-04-19 23:47 | 12.63083 | -68.72604 | 17377 ft | 412 kts | 15° |
| 2026-04-19 23:47 | 12.65871 | -68.71925 | 17954 ft | 414 kts | 5° |
| 2026-04-19 23:47 | 12.68756 | -68.72132 | 18516 ft | 415 kts | 347° |
| 2026-04-19 23:47 | 12.71592 | -68.72778 | 19082 ft | 422 kts | 347° |
| 2026-04-19 23:48 | 12.74486 | -68.73401 | 19815 ft | 425 kts | 347° |
| 2026-04-19 23:48 | 12.77390 | -68.74003 | 20608 ft | 428 kts | 348° |
| 2026-04-19 23:48 | 12.80333 | -68.74604 | 21330 ft | 431 kts | 348° |
| 2026-04-19 23:48 | 12.83247 | -68.75195 | 22005 ft | 435 kts | 348° |
| 2026-04-19 23:49 | 12.86237 | -68.75798 | 22624 ft | 439 kts | 348° |
| 2026-04-19 23:49 | 12.89246 | -68.76405 | 23202 ft | 443 kts | 348° |
| 2026-04-19 23:49 | 12.92282 | -68.77018 | 23774 ft | 446 kts | 347° |
| 2026-04-19 23:49 | 12.95207 | -68.77608 | 24282 ft | 449 kts | 347° |
| 2026-04-19 23:50 | 12.98294 | -68.78231 | 24779 ft | 454 kts | 347° |
| 2026-04-19 23:50 | 13.01407 | -68.78860 | 25181 ft | 459 kts | 347° |
| 2026-04-19 23:50 | 13.04559 | -68.79497 | 25575 ft | 464 kts | 347° |
| 2026-04-19 23:50 | 13.07740 | -68.80140 | 26006 ft | 467 kts | 347° |
| 2026-04-19 23:51 | 13.10946 | -68.80788 | 26447 ft | 470 kts | 347° |
| 2026-04-19 23:51 | 13.14086 | -68.81424 | 26832 ft | 473 kts | 347° |
| 2026-04-19 23:51 | 13.17333 | -68.82081 | 27194 ft | 477 kts | 347° |
| 2026-04-19 23:51 | 13.20608 | -68.82744 | 27537 ft | 481 kts | 347° |
| 2026-04-19 23:52 | 13.23861 | -68.83402 | 27865 ft | 484 kts | 346° |
| 2026-04-19 23:52 | 13.27175 | -68.84072 | 28192 ft | 487 kts | 347° |
| 2026-04-19 23:52 | 13.30511 | -68.84748 | 28504 ft | 490 kts | 346° |
| 2026-04-19 23:52 | 13.33874 | -68.85429 | 28803 ft | 493 kts | 346° |
| 2026-04-19 23:53 | 13.37251 | -68.86114 | 29066 ft | 496 kts | 346° |
| 2026-04-19 23:53 | 13.40647 | -68.86802 | 29336 ft | 498 kts | 346° |
| 2026-04-19 23:53 | 13.44055 | -68.87494 | 29586 ft | 501 kts | 346° |
| 2026-04-19 23:53 | 13.47494 | -68.88192 | 29825 ft | 503 kts | 346° |
| 2026-04-19 23:54 | 13.50937 | -68.88890 | 30056 ft | 505 kts | 346° |
| 2026-04-19 23:54 | 13.54402 | -68.89593 | 30287 ft | 507 kts | 346° |
| 2026-04-19 23:54 | 13.57861 | -68.90294 | 30586 ft | 506 kts | 346° |
| 2026-04-19 23:54 | 13.61315 | -68.90995 | 30900 ft | 505 kts | 346° |
| 2026-04-19 23:55 | 13.64716 | -68.91685 | 31208 ft | 505 kts | 346° |
| 2026-04-19 23:55 | 13.68111 | -68.92374 | 31505 ft | 504 kts | 346° |
| 2026-04-19 23:55 | 13.71553 | -68.93072 | 31799 ft | 504 kts | 345° |
| 2026-04-19 23:55 | 13.75005 | -68.93774 | 32088 ft | 504 kts | 345° |
| 2026-04-19 23:56 | 13.78438 | -68.94473 | 32395 ft | 503 kts | 345° |
| 2026-04-19 23:56 | 13.81869 | -68.95171 | 32684 ft | 502 kts | 345° |
| 2026-04-19 23:56 | 13.85288 | -68.95866 | 32960 ft | 501 kts | 345° |
| 2026-04-19 23:56 | 13.88713 | -68.96562 | 33266 ft | 500 kts | 345° |
| 2026-04-19 23:57 | 13.92130 | -68.97258 | 33535 ft | 500 kts | 345° |
| 2026-04-19 23:57 | 13.95503 | -68.97944 | 33788 ft | 499 kts | 345° |
| 2026-04-19 23:57 | 13.98908 | -68.98638 | 34056 ft | 499 kts | 345° |
| 2026-04-19 23:57 | 14.02313 | -68.99333 | 34335 ft | 498 kts | 345° |
| 2026-04-19 23:58 | 14.05727 | -69.00028 | 34907 ft | 490 kts | 345° |
| 2026-04-19 23:58 | 14.09026 | -69.00699 | 35365 ft | 486 kts | 345° |
| 2026-04-19 23:58 | 14.12333 | -69.01373 | 35648 ft | 485 kts | 345° |
| 2026-04-19 23:58 | 14.15652 | -69.02051 | 35861 ft | 486 kts | 345° |
| 2026-04-19 23:59 | 14.18972 | -69.02731 | 36089 ft | 487 kts | 345° |
| 2026-04-19 23:59 | 14.22308 | -69.03412 | 36336 ft | 487 kts | 345° |
| 2026-04-19 23:59 | 14.25623 | -69.04089 | 36589 ft | 486 kts | 345° |
| 2026-04-19 23:59 | 14.28946 | -69.04769 | 36870 ft | 485 kts | 345° |
| 2026-04-20 00:00 | 14.32245 | -69.05443 | 37241 ft | 481 kts | 345° |
| 2026-04-20 00:00 | 14.35512 | -69.06110 | 37634 ft | 477 kts | 345° |
| 2026-04-20 00:00 | 14.38765 | -69.06774 | 37861 ft | 476 kts | 345° |
| 2026-04-20 00:00 | 14.42025 | -69.07441 | 37897 ft | 478 kts | 345° |
| 2026-04-20 00:01 | 14.48527 | -69.08772 | 37924 ft | 474 kts | 345° |
| 2026-04-20 00:02 | 14.58169 | -69.10746 | 37938 ft | 471 kts | 345° |
| 2026-04-20 00:02 | 14.64604 | -69.12063 | 37933 ft | 471 kts | 345° |
| 2026-04-20 00:03 | 14.71039 | -69.13384 | 37940 ft | 471 kts | 345° |
| 2026-04-20 00:03 | 14.77478 | -69.14705 | 37937 ft | 472 kts | 346° |
| 2026-04-20 00:04 | 14.83922 | -69.16028 | 37938 ft | 472 kts | 346° |
| 2026-04-20 00:04 | 14.90364 | -69.17352 | 37940 ft | 472 kts | 346° |
| 2026-04-20 00:05 | 14.96768 | -69.18668 | 37948 ft | 471 kts | 346° |
| 2026-04-20 00:05 | 15.03203 | -69.19992 | 37943 ft | 471 kts | 346° |
| 2026-04-20 00:06 | 15.09613 | -69.21310 | 37948 ft | 470 kts | 346° |
| 2026-04-20 00:06 | 15.16042 | -69.22631 | 37946 ft | 469 kts | 346° |
| 2026-04-20 00:07 | 15.22444 | -69.23952 | 37945 ft | 469 kts | 346° |
| 2026-04-20 00:07 | 15.28838 | -69.25272 | 37952 ft | 467 kts | 346° |
| 2026-04-20 00:08 | 15.35172 | -69.26579 | 37954 ft | 467 kts | 346° |
| 2026-04-20 00:08 | 15.41547 | -69.27895 | 37952 ft | 467 kts | 346° |
| 2026-04-20 00:09 | 15.47914 | -69.29208 | 37948 ft | 466 kts | 346° |
| 2026-04-20 00:09 | 15.54280 | -69.30525 | 37950 ft | 466 kts | 346° |
| 2026-04-20 00:10 | 15.60646 | -69.31840 | 37958 ft | 465 kts | 346° |
| 2026-04-20 00:10 | 15.66995 | -69.33155 | 37966 ft | 465 kts | 346° |
| 2026-04-20 00:11 | 15.73346 | -69.34470 | 37960 ft | 465 kts | 346° |
| 2026-04-20 00:11 | 15.79643 | -69.35774 | 37968 ft | 464 kts | 346° |
| 2026-04-20 00:12 | 15.85973 | -69.37087 | 37988 ft | 462 kts | 346° |
| 2026-04-20 00:12 | 15.92276 | -69.38395 | 37989 ft | 461 kts | 346° |
| 2026-04-20 00:13 | 15.98555 | -69.39700 | 37990 ft | 459 kts | 346° |
| 2026-04-20 00:13 | 16.04877 | -69.40708 | 38011 ft | 459 kts | 351° |
| 2026-04-20 00:14 | 16.11246 | -69.41323 | 37997 ft | 459 kts | 352° |
| 2026-04-20 00:14 | 16.17618 | -69.41930 | 37999 ft | 458 kts | 352° |
| 2026-04-20 00:15 | 16.23960 | -69.42591 | 38001 ft | 458 kts | 352° |
| 2026-04-20 00:15 | 16.30269 | -69.43276 | 38000 ft | 458 kts | 352° |
| 2026-04-20 00:16 | 16.36620 | -69.43969 | 38001 ft | 458 kts | 352° |
| 2026-04-20 00:16 | 16.42969 | -69.44660 | 38003 ft | 458 kts | 352° |
| 2026-04-20 00:17 | 16.49318 | -69.45348 | 38012 ft | 458 kts | 352° |
| 2026-04-20 00:17 | 16.55658 | -69.46040 | 38007 ft | 458 kts | 352° |
| 2026-04-20 00:18 | 16.61959 | -69.46726 | 38010 ft | 458 kts | 352° |
| 2026-04-20 00:18 | 16.68306 | -69.47419 | 38011 ft | 458 kts | 352° |
| 2026-04-20 00:19 | 16.74647 | -69.48110 | 38010 ft | 457 kts | 352° |
| 2026-04-20 00:19 | 16.80979 | -69.48798 | 38009 ft | 457 kts | 352° |
| 2026-04-20 00:20 | 16.87302 | -69.49491 | 38009 ft | 456 kts | 352° |
| 2026-04-20 00:20 | 16.93581 | -69.50178 | 38010 ft | 456 kts | 352° |
| 2026-04-20 00:21 | 16.99887 | -69.50867 | 38009 ft | 455 kts | 352° |
| 2026-04-20 00:21 | 17.06175 | -69.51555 | 38017 ft | 454 kts | 352° |
| 2026-04-20 00:22 | 17.12449 | -69.52244 | 38018 ft | 453 kts | 352° |
| 2026-04-20 00:22 | 17.18719 | -69.52934 | 38020 ft | 452 kts | 352° |
| 2026-04-20 00:23 | 17.24972 | -69.53623 | 38019 ft | 451 kts | 352° |
| 2026-04-20 00:23 | 17.31217 | -69.54309 | 38019 ft | 451 kts | 352° |
| 2026-04-20 00:24 | 17.37459 | -69.54996 | 38018 ft | 450 kts | 352° |
| 2026-04-20 00:24 | 17.43647 | -69.55677 | 38018 ft | 449 kts | 352° |
| 2026-04-20 00:25 | 17.49863 | -69.56364 | 38018 ft | 448 kts | 352° |
| 2026-04-20 00:25 | 17.55016 | -69.56933 | 38018 ft | 448 kts | 352° |
| 2026-04-20 00:26 | 17.61218 | -69.57618 | 38021 ft | 446 kts | 352° |
| 2026-04-20 00:26 | 17.67392 | -69.58300 | 38017 ft | 446 kts | 352° |
| 2026-04-20 00:27 | 17.73563 | -69.58981 | 38018 ft | 445 kts | 352° |
| 2026-04-20 00:27 | 17.79725 | -69.59664 | 38019 ft | 445 kts | 352° |
| 2026-04-20 00:28 | 17.85849 | -69.60343 | 38019 ft | 445 kts | 352° |
| 2026-04-20 00:28 | 17.92005 | -69.61024 | 38020 ft | 445 kts | 352° |
| 2026-04-20 00:29 | 17.98163 | -69.61707 | 38020 ft | 444 kts | 352° |
| 2026-04-20 00:29 | 18.04315 | -69.62389 | 38020 ft | 444 kts | 352° |
| 2026-04-20 00:30 | 18.10458 | -69.63073 | 38017 ft | 443 kts | 352° |
| 2026-04-20 00:30 | 18.16553 | -69.63744 | 38018 ft | 442 kts | 352° |
| 2026-04-20 00:31 | 18.22668 | -69.64415 | 38017 ft | 441 kts | 352° |
| 2026-04-20 00:31 | 18.28782 | -69.65087 | 38021 ft | 441 kts | 352° |
| 2026-04-20 00:32 | 18.34886 | -69.65761 | 38018 ft | 441 kts | 352° |
| 2026-04-20 00:32 | 18.40997 | -69.65835 | 38017 ft | 444 kts | 11° |
| 2026-04-20 00:32 | 18.43915 | -69.64722 | 38026 ft | 450 kts | 22° |
| 2026-04-20 00:33 | 18.46609 | -69.63003 | 38015 ft | 457 kts | 34° |
| 2026-04-20 00:33 | 18.48870 | -69.60595 | 38033 ft | 464 kts | 45° |
| 2026-04-20 00:33 | 18.50948 | -69.57985 | 38015 ft | 465 kts | 45° |
| 2026-04-20 00:34 | 18.55206 | -69.52927 | 38011 ft | 460 kts | 37° |
| 2026-04-20 00:34 | 18.57809 | -69.51044 | 38019 ft | 449 kts | 20° |
| 2026-04-20 00:34 | 18.60740 | -69.49996 | 38038 ft | 444 kts | 9° |
| 2026-04-20 00:34 | 18.63793 | -69.49598 | 38009 ft | 441 kts | 357° |
| 2026-04-20 00:35 | 18.66811 | -69.49931 | 38023 ft | 436 kts | 350° |
| 2026-04-20 00:35 | 18.72831 | -69.50903 | 38015 ft | 439 kts | 350° |
| 2026-04-20 00:36 | 18.78892 | -69.51865 | 38007 ft | 441 kts | 350° |
| 2026-04-20 00:36 | 18.84970 | -69.52786 | 38004 ft | 442 kts | 351° |
| 2026-04-20 00:37 | 18.91074 | -69.53690 | 37995 ft | 442 kts | 351° |
| 2026-04-20 00:37 | 18.97127 | -69.54585 | 37990 ft | 441 kts | 351° |
| 2026-04-20 00:38 | 19.03192 | -69.55480 | 37975 ft | 439 kts | 351° |
| 2026-04-20 00:38 | 19.09240 | -69.56375 | 37982 ft | 437 kts | 351° |
| 2026-04-20 00:39 | 19.15244 | -69.57265 | 37982 ft | 434 kts | 351° |
| 2026-04-20 00:39 | 19.21215 | -69.58150 | 37981 ft | 432 kts | 351° |
| 2026-04-20 00:40 | 19.27161 | -69.59032 | 37987 ft | 431 kts | 351° |
| 2026-04-20 00:40 | 19.33066 | -69.59910 | 37977 ft | 431 kts | 351° |
| 2026-04-20 00:41 | 19.38972 | -69.60790 | 37984 ft | 430 kts | 351° |
| 2026-04-20 00:41 | 19.44904 | -69.61671 | 37982 ft | 430 kts | 351° |
| 2026-04-20 00:42 | 19.50842 | -69.62555 | 37981 ft | 430 kts | 351° |
| 2026-04-20 00:42 | 19.56730 | -69.63431 | 37981 ft | 430 kts | 351° |
| 2026-04-20 00:43 | 19.62652 | -69.64316 | 37983 ft | 429 kts | 351° |
| 2026-04-20 00:43 | 19.68571 | -69.65200 | 37979 ft | 429 kts | 351° |
| 2026-04-20 00:44 | 19.74470 | -69.66079 | 37983 ft | 428 kts | 351° |
| 2026-04-20 00:44 | 19.80368 | -69.66959 | 37980 ft | 427 kts | 351° |
| 2026-04-20 00:45 | 19.86248 | -69.67839 | 37984 ft | 427 kts | 351° |
| 2026-04-20 00:45 | 19.92134 | -69.68720 | 37982 ft | 426 kts | 351° |
| 2026-04-20 00:46 | 19.98028 | -69.69482 | 37979 ft | 426 kts | 354° |
| 2026-04-20 00:46 | 20.03955 | -69.69906 | 37984 ft | 426 kts | 354° |
| 2026-04-20 00:47 | 20.09832 | -69.70306 | 37981 ft | 426 kts | 354° |
| 2026-04-20 00:47 | 20.15758 | -69.70726 | 37983 ft | 426 kts | 354° |
| 2026-04-20 00:48 | 20.21668 | -69.71149 | 37983 ft | 426 kts | 354° |
| 2026-04-20 00:48 | 20.27584 | -69.71580 | 37982 ft | 426 kts | 354° |
| 2026-04-20 00:49 | 20.33503 | -69.72011 | 37980 ft | 426 kts | 354° |
| 2026-04-20 00:49 | 20.39414 | -69.72438 | 37982 ft | 426 kts | 354° |
| 2026-04-20 00:50 | 20.45293 | -69.72865 | 37982 ft | 426 kts | 354° |
| 2026-04-20 00:50 | 20.51197 | -69.73316 | 37982 ft | 425 kts | 354° |
| 2026-04-20 00:51 | 20.57107 | -69.73770 | 37991 ft | 426 kts | 354° |
| 2026-04-20 00:51 | 20.63027 | -69.74220 | 37991 ft | 425 kts | 354° |
| 2026-04-20 00:52 | 20.68930 | -69.74662 | 37991 ft | 425 kts | 354° |
| 2026-04-20 00:52 | 20.74833 | -69.75104 | 37991 ft | 425 kts | 354° |
| 2026-04-20 00:53 | 20.80735 | -69.75548 | 37990 ft | 425 kts | 354° |
| 2026-04-20 00:53 | 20.86637 | -69.75994 | 37991 ft | 424 kts | 354° |
| 2026-04-20 00:54 | 20.92479 | -69.76435 | 37990 ft | 424 kts | 354° |
| 2026-04-20 00:54 | 20.98365 | -69.76885 | 37992 ft | 423 kts | 354° |
| 2026-04-20 00:55 | 21.04254 | -69.77337 | 37990 ft | 423 kts | 354° |
| 2026-04-20 00:55 | 21.10117 | -69.77788 | 37989 ft | 422 kts | 354° |
| 2026-04-20 00:56 | 21.15974 | -69.78237 | 37992 ft | 422 kts | 354° |
| 2026-04-20 00:56 | 21.21793 | -69.78684 | 37992 ft | 422 kts | 354° |
| 2026-04-20 00:57 | 21.27663 | -69.79131 | 37990 ft | 422 kts | 354° |
| 2026-04-20 00:57 | 21.33512 | -69.79569 | 37990 ft | 421 kts | 354° |
| 2026-04-20 00:58 | 21.39371 | -69.80006 | 37991 ft | 421 kts | 354° |
| 2026-04-20 00:58 | 21.45180 | -69.80441 | 37991 ft | 421 kts | 354° |
| 2026-04-20 00:59 | 21.51029 | -69.80879 | 37996 ft | 420 kts | 354° |
| 2026-04-20 00:59 | 21.56865 | -69.81317 | 38001 ft | 420 kts | 354° |
| 2026-04-20 01:00 | 21.62716 | -69.81757 | 38000 ft | 420 kts | 354° |
| 2026-04-20 01:00 | 21.68507 | -69.82194 | 38001 ft | 420 kts | 354° |
| 2026-04-20 01:01 | 21.74347 | -69.82632 | 38000 ft | 420 kts | 354° |
| 2026-04-20 01:01 | 21.80186 | -69.83074 | 38001 ft | 420 kts | 354° |
| 2026-04-20 01:02 | 21.86029 | -69.83513 | 37999 ft | 420 kts | 354° |
| 2026-04-20 01:02 | 21.91858 | -69.83952 | 38001 ft | 420 kts | 354° |
| 2026-04-20 01:03 | 21.97655 | -69.84390 | 38000 ft | 420 kts | 354° |
| 2026-04-20 01:03 | 22.03494 | -69.84836 | 38001 ft | 420 kts | 354° |
| 2026-04-20 01:04 | 22.09336 | -69.85287 | 37999 ft | 420 kts | 354° |
| 2026-04-20 01:04 | 22.15165 | -69.85735 | 38000 ft | 420 kts | 354° |
| 2026-04-20 01:05 | 22.20999 | -69.86182 | 38000 ft | 420 kts | 354° |
| 2026-04-20 01:05 | 22.26798 | -69.86627 | 38002 ft | 420 kts | 354° |
| 2026-04-20 01:06 | 22.32627 | -69.87061 | 38001 ft | 420 kts | 354° |
| 2026-04-20 01:06 | 22.38465 | -69.87495 | 38000 ft | 420 kts | 354° |
| 2026-04-20 01:07 | 22.44290 | -69.87932 | 38001 ft | 420 kts | 354° |
| 2026-04-20 01:07 | 22.50119 | -69.88369 | 37999 ft | 420 kts | 354° |
| 2026-04-20 01:08 | 22.55947 | -69.88804 | 38000 ft | 419 kts | 354° |
| 2026-04-20 01:08 | 22.61773 | -69.89243 | 38001 ft | 419 kts | 354° |
| 2026-04-20 01:09 | 22.67594 | -69.89681 | 37999 ft | 419 kts | 354° |
| 2026-04-20 01:09 | 22.73413 | -69.90116 | 38002 ft | 419 kts | 354° |
| 2026-04-20 01:10 | 22.79196 | -69.90560 | 38002 ft | 419 kts | 354° |
| 2026-04-20 01:10 | 22.87932 | -69.91239 | 38009 ft | 419 kts | 354° |
| 2026-04-20 01:11 | 22.92768 | -69.91612 | 38008 ft | 419 kts | 354° |
| 2026-04-20 01:11 | 22.98583 | -69.92064 | 38012 ft | 419 kts | 354° |
| 2026-04-20 01:12 | 23.04399 | -69.92517 | 38009 ft | 419 kts | 354° |
| 2026-04-20 01:12 | 23.10213 | -69.92968 | 38010 ft | 418 kts | 354° |
| 2026-04-20 01:13 | 23.16023 | -69.93421 | 38009 ft | 418 kts | 353° |
| 2026-04-20 01:13 | 23.21819 | -69.93873 | 38009 ft | 418 kts | 353° |
| 2026-04-20 01:14 | 23.27594 | -69.94324 | 38018 ft | 417 kts | 353° |
| 2026-04-20 01:14 | 23.33379 | -69.94775 | 38017 ft | 417 kts | 353° |
| 2026-04-20 01:15 | 23.39171 | -69.95226 | 38020 ft | 417 kts | 353° |
| 2026-04-20 01:15 | 23.44964 | -69.95679 | 38019 ft | 417 kts | 353° |
| 2026-04-20 01:16 | 23.50755 | -69.96133 | 38019 ft | 417 kts | 353° |
| 2026-04-20 01:16 | 23.56548 | -69.96585 | 38019 ft | 417 kts | 353° |
| 2026-04-20 01:17 | 23.62344 | -69.97039 | 38019 ft | 417 kts | 353° |
| 2026-04-20 01:17 | 23.68112 | -69.97493 | 38018 ft | 418 kts | 353° |
| 2026-04-20 01:18 | 23.73916 | -69.97947 | 38018 ft | 417 kts | 353° |
| 2026-04-20 01:18 | 23.79712 | -69.98404 | 38016 ft | 417 kts | 353° |
| 2026-04-20 01:19 | 23.85493 | -69.98858 | 38019 ft | 417 kts | 353° |
| 2026-04-20 01:19 | 23.91284 | -69.99315 | 38023 ft | 416 kts | 353° |
| 2026-04-20 01:20 | 23.97034 | -69.99768 | 38029 ft | 416 kts | 353° |
| 2026-04-20 01:20 | 24.02820 | -70.00224 | 38027 ft | 416 kts | 353° |
| 2026-04-20 01:21 | 24.08604 | -70.00681 | 38029 ft | 416 kts | 353° |
| 2026-04-20 01:21 | 24.14399 | -70.01138 | 38032 ft | 417 kts | 353° |
| 2026-04-20 01:22 | 24.20156 | -70.01561 | 38017 ft | 417 kts | 354° |
| 2026-04-20 01:22 | 24.25956 | -70.01823 | 38018 ft | 417 kts | 354° |
| 2026-04-20 01:23 | 24.31757 | -70.02059 | 38019 ft | 417 kts | 354° |
| 2026-04-20 01:23 | 24.37563 | -70.02313 | 38018 ft | 417 kts | 354° |
| 2026-04-20 01:24 | 24.43372 | -70.02578 | 38017 ft | 417 kts | 354° |
| 2026-04-20 01:24 | 24.49187 | -70.02848 | 38019 ft | 418 kts | 354° |
| 2026-04-20 01:25 | 24.55000 | -70.03115 | 38017 ft | 418 kts | 354° |
| 2026-04-20 01:25 | 24.60830 | -70.03384 | 38019 ft | 419 kts | 354° |
| 2026-04-20 01:26 | 24.66620 | -70.03653 | 38016 ft | 419 kts | 354° |
| 2026-04-20 01:26 | 24.72460 | -70.03923 | 38019 ft | 420 kts | 354° |
| 2026-04-20 01:27 | 24.78306 | -70.04192 | 38018 ft | 420 kts | 354° |
| 2026-04-20 01:27 | 24.84158 | -70.04464 | 38020 ft | 421 kts | 354° |
| 2026-04-20 01:28 | 24.90006 | -70.04736 | 38027 ft | 421 kts | 354° |
| 2026-04-20 01:28 | 24.95866 | -70.05007 | 38028 ft | 421 kts | 354° |
| 2026-04-20 01:29 | 25.01654 | -70.05546 | 38029 ft | 418 kts | 347° |
| 2026-04-20 01:29 | 25.07337 | -70.06844 | 38028 ft | 417 kts | 345° |
| 2026-04-20 01:30 | 25.13018 | -70.08175 | 38027 ft | 417 kts | 345° |
| 2026-04-20 01:30 | 25.18709 | -70.09495 | 38028 ft | 418 kts | 345° |
| 2026-04-20 01:31 | 25.24407 | -70.10813 | 38023 ft | 418 kts | 345° |
| 2026-04-20 01:31 | 25.30113 | -70.12131 | 38027 ft | 419 kts | 345° |
| 2026-04-20 01:32 | 25.35786 | -70.13442 | 38024 ft | 419 kts | 345° |
| 2026-04-20 01:32 | 25.41505 | -70.14763 | 38027 ft | 420 kts | 345° |
| 2026-04-20 01:33 | 25.47232 | -70.16087 | 38027 ft | 420 kts | 345° |
| 2026-04-20 01:33 | 25.52957 | -70.17411 | 38026 ft | 420 kts | 345° |
| 2026-04-20 01:34 | 25.58678 | -70.18737 | 38032 ft | 420 kts | 345° |
| 2026-04-20 01:34 | 25.64391 | -70.20063 | 38024 ft | 419 kts | 345° |
| 2026-04-20 01:35 | 25.70092 | -70.21388 | 38024 ft | 418 kts | 345° |
| 2026-04-20 01:35 | 25.75789 | -70.22712 | 38033 ft | 418 kts | 345° |
| 2026-04-20 01:36 | 25.81451 | -70.24030 | 38024 ft | 418 kts | 345° |
| 2026-04-20 01:36 | 25.87159 | -70.25361 | 38031 ft | 418 kts | 345° |
| 2026-04-20 01:37 | 25.92860 | -70.26690 | 38029 ft | 418 kts | 345° |
| 2026-04-20 01:37 | 25.98564 | -70.28018 | 38031 ft | 419 kts | 345° |
| 2026-04-20 01:38 | 26.04264 | -70.29351 | 38037 ft | 419 kts | 344° |
| 2026-04-20 01:38 | 26.09932 | -70.30677 | 38075 ft | 419 kts | 344° |
| 2026-04-20 01:39 | 26.15636 | -70.32011 | 38088 ft | 419 kts | 344° |
| 2026-04-20 01:39 | 26.21346 | -70.33350 | 38092 ft | 419 kts | 344° |
| 2026-04-20 01:40 | 26.27054 | -70.34689 | 38081 ft | 420 kts | 344° |
| 2026-04-20 01:40 | 26.32769 | -70.36032 | 38081 ft | 420 kts | 344° |
| 2026-04-20 01:41 | 26.38492 | -70.37376 | 38082 ft | 420 kts | 344° |
| 2026-04-20 01:41 | 26.44227 | -70.38726 | 38087 ft | 420 kts | 344° |
| 2026-04-20 01:42 | 26.49952 | -70.40073 | 38083 ft | 421 kts | 344° |
| 2026-04-20 01:42 | 26.55683 | -70.41423 | 38082 ft | 421 kts | 344° |
| 2026-04-20 01:43 | 26.61384 | -70.42768 | 38081 ft | 422 kts | 344° |
| 2026-04-20 01:43 | 26.67136 | -70.44131 | 38082 ft | 422 kts | 344° |
| 2026-04-20 01:44 | 26.72891 | -70.45491 | 38081 ft | 423 kts | 344° |
| 2026-04-20 01:44 | 26.78663 | -70.46858 | 38088 ft | 423 kts | 344° |
| 2026-04-20 01:45 | 26.84402 | -70.48217 | 38082 ft | 424 kts | 344° |
| 2026-04-20 01:45 | 26.90186 | -70.49588 | 38081 ft | 425 kts | 343° |
| 2026-04-20 01:46 | 26.95980 | -70.50963 | 38080 ft | 426 kts | 343° |
| 2026-04-20 01:46 | 27.01781 | -70.52343 | 38088 ft | 426 kts | 343° |
| 2026-04-20 01:47 | 27.07592 | -70.53725 | 38094 ft | 427 kts | 343° |
| 2026-04-20 01:47 | 27.13412 | -70.55111 | 38088 ft | 427 kts | 343° |
| 2026-04-20 01:48 | 27.19189 | -70.56489 | 38096 ft | 427 kts | 343° |
| 2026-04-20 01:48 | 27.25016 | -70.57882 | 38102 ft | 428 kts | 343° |
| 2026-04-20 01:49 | 27.30843 | -70.59274 | 38104 ft | 428 kts | 343° |
| 2026-04-20 01:49 | 27.36671 | -70.60667 | 38108 ft | 428 kts | 343° |
| 2026-04-20 01:50 | 27.42494 | -70.62062 | 38113 ft | 428 kts | 343° |
| 2026-04-20 01:50 | 27.48315 | -70.63458 | 38110 ft | 428 kts | 343° |
| 2026-04-20 01:51 | 27.54141 | -70.64856 | 38110 ft | 428 kts | 343° |
| 2026-04-20 01:51 | 27.59965 | -70.66257 | 38110 ft | 428 kts | 343° |
| 2026-04-20 01:52 | 27.65786 | -70.67655 | 38111 ft | 427 kts | 343° |
| 2026-04-20 01:52 | 27.71571 | -70.69048 | 38112 ft | 428 kts | 343° |
| 2026-04-20 01:53 | 27.77433 | -70.70461 | 38112 ft | 428 kts | 343° |
| 2026-04-20 01:53 | 27.83233 | -70.71861 | 38111 ft | 429 kts | 343° |
| 2026-04-20 01:54 | 27.89078 | -70.73274 | 38112 ft | 429 kts | 343° |
| 2026-04-20 01:54 | 27.94918 | -70.74686 | 38112 ft | 429 kts | 343° |
| 2026-04-20 01:55 | 27.99783 | -70.75864 | 38111 ft | 429 kts | 343° |
| 2026-04-20 01:55 | 28.06588 | -70.77513 | 38112 ft | 431 kts | 342° |
| 2026-04-20 01:56 | 28.11508 | -70.78707 | 38123 ft | 432 kts | 342° |
| 2026-04-20 01:56 | 28.17363 | -70.80129 | 38120 ft | 433 kts | 343° |
| 2026-04-20 01:57 | 28.23266 | -70.81564 | 38122 ft | 434 kts | 343° |
| 2026-04-20 01:57 | 28.29180 | -70.83003 | 38118 ft | 434 kts | 342° |
| 2026-04-20 01:58 | 28.35089 | -70.84445 | 38121 ft | 435 kts | 342° |
| 2026-04-20 01:58 | 28.41011 | -70.85891 | 38119 ft | 435 kts | 342° |
| 2026-04-20 01:59 | 28.46884 | -70.87323 | 38117 ft | 434 kts | 342° |
| 2026-04-20 01:59 | 28.52798 | -70.88769 | 38120 ft | 434 kts | 342° |
| 2026-04-20 02:00 | 28.58712 | -70.90217 | 38121 ft | 434 kts | 342° |
| 2026-04-20 02:00 | 28.64628 | -70.91667 | 38120 ft | 435 kts | 342° |
| 2026-04-20 02:01 | 28.70553 | -70.93122 | 38120 ft | 435 kts | 342° |
| 2026-04-20 02:01 | 28.76481 | -70.94580 | 38119 ft | 436 kts | 342° |
| 2026-04-20 02:02 | 28.82381 | -70.96029 | 38121 ft | 436 kts | 342° |
| 2026-04-20 02:02 | 28.88329 | -70.97494 | 38119 ft | 437 kts | 342° |
| 2026-04-20 02:03 | 28.94274 | -70.98961 | 38126 ft | 437 kts | 342° |
| 2026-04-20 02:03 | 29.00216 | -71.00426 | 38130 ft | 437 kts | 342° |
| 2026-04-20 02:04 | 29.06130 | -71.01888 | 38130 ft | 438 kts | 342° |
| 2026-04-20 02:04 | 29.12114 | -71.03369 | 38128 ft | 437 kts | 342° |
| 2026-04-20 02:05 | 29.18027 | -71.04833 | 38128 ft | 438 kts | 342° |
| 2026-04-20 02:05 | 29.23990 | -71.06312 | 38129 ft | 438 kts | 342° |
| 2026-04-20 02:06 | 29.29944 | -71.07790 | 38129 ft | 438 kts | 342° |
| 2026-04-20 02:06 | 29.35909 | -71.09272 | 38130 ft | 438 kts | 342° |
| 2026-04-20 02:07 | 29.41878 | -71.10759 | 38130 ft | 439 kts | 342° |
| 2026-04-20 02:07 | 29.47807 | -71.12237 | 38129 ft | 439 kts | 342° |
| 2026-04-20 02:08 | 29.53780 | -71.13728 | 38131 ft | 440 kts | 342° |
| 2026-04-20 02:08 | 29.59771 | -71.15226 | 38127 ft | 440 kts | 342° |
| 2026-04-20 02:09 | 29.65767 | -71.16724 | 38123 ft | 440 kts | 342° |
| 2026-04-20 02:09 | 29.71728 | -71.18216 | 38121 ft | 440 kts | 342° |
| 2026-04-20 02:10 | 29.77725 | -71.19720 | 38118 ft | 441 kts | 342° |
| 2026-04-20 02:10 | 29.83711 | -71.21224 | 38124 ft | 440 kts | 341° |
| 2026-04-20 02:11 | 29.89704 | -71.22729 | 38129 ft | 440 kts | 342° |
| 2026-04-20 02:11 | 29.95690 | -71.24234 | 38129 ft | 440 kts | 341° |
| 2026-04-20 02:12 | 30.01682 | -71.25745 | 38131 ft | 440 kts | 341° |
| 2026-04-20 02:12 | 30.07641 | -71.27249 | 38132 ft | 442 kts | 341° |
| 2026-04-20 02:13 | 30.13672 | -71.28774 | 38133 ft | 444 kts | 341° |
| 2026-04-20 02:13 | 30.19725 | -71.30305 | 38131 ft | 446 kts | 341° |
| 2026-04-20 02:14 | 30.25801 | -71.31843 | 38129 ft | 447 kts | 341° |
| 2026-04-20 02:14 | 30.31884 | -71.33386 | 38130 ft | 447 kts | 341° |
| 2026-04-20 02:15 | 30.37963 | -71.34928 | 38131 ft | 447 kts | 341° |
| 2026-04-20 02:15 | 30.44007 | -71.36462 | 38127 ft | 446 kts | 341° |
| 2026-04-20 02:16 | 30.50072 | -71.38007 | 38130 ft | 446 kts | 341° |
| 2026-04-20 02:16 | 30.56126 | -71.39548 | 38129 ft | 445 kts | 341° |
| 2026-04-20 02:17 | 30.62183 | -71.41095 | 38148 ft | 446 kts | 341° |
| 2026-04-20 02:17 | 30.68246 | -71.42645 | 38139 ft | 446 kts | 341° |
| 2026-04-20 02:18 | 30.74316 | -71.44197 | 38140 ft | 447 kts | 341° |
| 2026-04-20 02:18 | 30.80404 | -71.45756 | 38136 ft | 448 kts | 341° |
| 2026-04-20 02:19 | 30.86492 | -71.47319 | 38134 ft | 449 kts | 341° |
| 2026-04-20 02:19 | 30.92597 | -71.48889 | 38145 ft | 449 kts | 341° |
| 2026-04-20 02:20 | 30.98705 | -71.50458 | 38143 ft | 450 kts | 341° |
| 2026-04-20 02:20 | 31.04829 | -71.52036 | 38137 ft | 450 kts | 341° |
| 2026-04-20 02:21 | 31.13973 | -71.54393 | 38138 ft | 451 kts | 341° |
| 2026-04-20 02:22 | 31.20114 | -71.55980 | 38147 ft | 452 kts | 341° |
| 2026-04-20 02:22 | 31.26277 | -71.57575 | 38131 ft | 453 kts | 341° |
| 2026-04-20 02:23 | 31.32441 | -71.59170 | 38133 ft | 454 kts | 341° |
| 2026-04-20 02:23 | 31.38610 | -71.60770 | 38146 ft | 454 kts | 341° |
| 2026-04-20 02:24 | 31.44799 | -71.62380 | 38149 ft | 455 kts | 341° |
| 2026-04-20 02:24 | 31.50942 | -71.63980 | 38140 ft | 456 kts | 341° |
| 2026-04-20 02:25 | 31.57144 | -71.65592 | 38147 ft | 457 kts | 341° |
| 2026-04-20 02:25 | 31.63364 | -71.67214 | 38149 ft | 458 kts | 341° |
| 2026-04-20 02:26 | 31.69588 | -71.68838 | 38150 ft | 458 kts | 341° |
| 2026-04-20 02:26 | 31.75815 | -71.70468 | 38145 ft | 458 kts | 341° |
| 2026-04-20 02:27 | 31.82044 | -71.72099 | 38151 ft | 459 kts | 341° |
| 2026-04-20 02:27 | 31.88289 | -71.73737 | 38149 ft | 459 kts | 341° |
| 2026-04-20 02:28 | 31.94529 | -71.75375 | 38146 ft | 459 kts | 341° |
| 2026-04-20 02:28 | 32.00724 | -71.77005 | 38150 ft | 459 kts | 341° |
| 2026-04-20 02:29 | 32.06959 | -71.78647 | 38157 ft | 459 kts | 341° |
| 2026-04-20 02:29 | 32.13193 | -71.80291 | 38147 ft | 459 kts | 341° |
| 2026-04-20 02:30 | 32.19427 | -71.81939 | 38146 ft | 458 kts | 341° |
| 2026-04-20 02:30 | 32.25648 | -71.83593 | 38140 ft | 458 kts | 341° |
| 2026-04-20 02:31 | 32.31888 | -71.85238 | 38137 ft | 459 kts | 341° |
| 2026-04-20 02:31 | 32.38128 | -71.86898 | 38162 ft | 459 kts | 341° |
| 2026-04-20 02:32 | 32.44301 | -71.88546 | 38159 ft | 457 kts | 341° |
| 2026-04-20 02:32 | 32.50510 | -71.90177 | 38167 ft | 460 kts | 341° |
| 2026-04-20 02:33 | 32.56794 | -71.91873 | 38160 ft | 462 kts | 341° |
| 2026-04-20 02:33 | 32.63065 | -71.93553 | 38184 ft | 461 kts | 341° |
| 2026-04-20 02:34 | 32.69336 | -71.95211 | 38173 ft | 461 kts | 341° |
| 2026-04-20 02:34 | 32.75598 | -71.96900 | 38183 ft | 465 kts | 341° |
| 2026-04-20 02:35 | 32.81896 | -71.98573 | 38198 ft | 468 kts | 341° |
| 2026-04-20 02:35 | 32.88242 | -72.00273 | 38185 ft | 466 kts | 341° |
| 2026-04-20 02:36 | 32.94545 | -72.01982 | 38169 ft | 463 kts | 341° |
| 2026-04-20 02:36 | 33.00809 | -72.03669 | 38164 ft | 466 kts | 340° |
| 2026-04-20 02:37 | 33.07169 | -72.05378 | 38176 ft | 469 kts | 341° |
| 2026-04-20 02:37 | 33.13547 | -72.07083 | 38165 ft | 471 kts | 341° |
| 2026-04-20 02:38 | 33.19934 | -72.08815 | 38165 ft | 468 kts | 341° |
| 2026-04-20 02:38 | 33.26295 | -72.10543 | 38177 ft | 469 kts | 342° |
| 2026-04-20 02:39 | 33.32661 | -72.12219 | 38178 ft | 466 kts | 341° |
| 2026-04-20 02:39 | 33.38963 | -72.13947 | 38182 ft | 468 kts | 341° |
| 2026-04-20 02:40 | 33.45314 | -72.15711 | 38168 ft | 469 kts | 341° |
| 2026-04-20 02:40 | 33.51707 | -72.17454 | 38175 ft | 471 kts | 341° |
| 2026-04-20 02:41 | 33.58076 | -72.19187 | 38178 ft | 473 kts | 341° |
| 2026-04-20 02:41 | 33.64504 | -72.20946 | 38174 ft | 473 kts | 341° |
| 2026-04-20 02:42 | 33.70932 | -72.22707 | 38176 ft | 473 kts | 341° |
| 2026-04-20 02:42 | 33.77345 | -72.24465 | 38175 ft | 473 kts | 341° |
| 2026-04-20 02:43 | 33.82688 | -72.25931 | 38174 ft | 473 kts | 341° |
| 2026-04-20 02:43 | 33.89099 | -72.27692 | 38174 ft | 473 kts | 341° |
| 2026-04-20 02:44 | 33.95512 | -72.29458 | 38177 ft | 472 kts | 341° |
| 2026-04-20 02:44 | 34.02038 | -72.30736 | 38175 ft | 478 kts | 348° |
| 2026-04-20 02:45 | 34.08648 | -72.31403 | 38176 ft | 480 kts | 349° |
| 2026-04-20 02:45 | 34.15318 | -72.32049 | 38177 ft | 480 kts | 349° |
| 2026-04-20 02:46 | 34.21987 | -72.32743 | 38175 ft | 481 kts | 349° |
| 2026-04-20 02:46 | 34.28660 | -72.33463 | 38174 ft | 481 kts | 349° |
| 2026-04-20 02:47 | 34.35322 | -72.34183 | 38172 ft | 481 kts | 349° |
| 2026-04-20 02:47 | 34.41995 | -72.34904 | 38175 ft | 481 kts | 349° |
| 2026-04-20 02:48 | 34.48626 | -72.35620 | 38173 ft | 481 kts | 349° |
| 2026-04-20 02:48 | 34.55292 | -72.36342 | 38176 ft | 481 kts | 349° |
| 2026-04-20 02:49 | 34.61969 | -72.37067 | 38177 ft | 482 kts | 349° |
| 2026-04-20 02:49 | 34.68652 | -72.37792 | 38177 ft | 482 kts | 349° |
| 2026-04-20 02:50 | 34.75405 | -72.37825 | 38180 ft | 491 kts | 1° |
| 2026-04-20 02:50 | 34.82183 | -72.36681 | 38180 ft | 493 kts | 4° |
| 2026-04-20 02:51 | 34.88945 | -72.35486 | 38186 ft | 494 kts | 3° |
| 2026-04-20 02:51 | 34.95804 | -72.34371 | 38188 ft | 494 kts | 1° |
| 2026-04-20 02:52 | 35.02583 | -72.33993 | 38186 ft | 490 kts | 355° |
| 2026-04-20 02:52 | 35.09407 | -72.33965 | 38184 ft | 490 kts | 355° |
| 2026-04-20 02:53 | 35.16241 | -72.33925 | 38179 ft | 491 kts | 355° |
| 2026-04-20 02:53 | 35.23086 | -72.33844 | 38174 ft | 492 kts | 356° |
| 2026-04-20 02:54 | 35.29941 | -72.33745 | 38174 ft | 492 kts | 356° |
| 2026-04-20 02:54 | 35.36812 | -72.33646 | 38186 ft | 493 kts | 356° |
| 2026-04-20 02:55 | 35.43639 | -72.33549 | 38184 ft | 494 kts | 356° |
| 2026-04-20 02:55 | 35.50543 | -72.33453 | 38188 ft | 495 kts | 356° |
| 2026-04-20 02:56 | 35.57433 | -72.33357 | 38188 ft | 495 kts | 356° |
| 2026-04-20 02:56 | 35.64336 | -72.33260 | 38194 ft | 496 kts | 356° |
| 2026-04-20 02:57 | 35.71201 | -72.33164 | 38194 ft | 496 kts | 356° |
| 2026-04-20 02:57 | 35.78113 | -72.33067 | 38192 ft | 497 kts | 356° |
| 2026-04-20 02:58 | 35.85038 | -72.32968 | 38191 ft | 497 kts | 356° |
| 2026-04-20 02:58 | 35.91910 | -72.32872 | 38185 ft | 497 kts | 356° |
| 2026-04-20 02:59 | 35.98845 | -72.32773 | 38184 ft | 497 kts | 356° |
| 2026-04-20 02:59 | 36.05701 | -72.33326 | 38193 ft | 491 kts | 346° |
| 2026-04-20 03:00 | 36.12313 | -72.35243 | 38190 ft | 487 kts | 340° |
| 2026-04-20 03:00 | 36.18854 | -72.37439 | 38183 ft | 487 kts | 340° |
| 2026-04-20 03:01 | 36.25406 | -72.39607 | 38183 ft | 487 kts | 340° |
| 2026-04-20 03:01 | 36.31961 | -72.41739 | 38185 ft | 486 kts | 340° |
| 2026-04-20 03:02 | 36.38508 | -72.43859 | 38186 ft | 485 kts | 340° |
| 2026-04-20 03:02 | 36.45043 | -72.45983 | 38183 ft | 485 kts | 340° |
| 2026-04-20 03:03 | 36.51527 | -72.48096 | 38184 ft | 485 kts | 339° |
| 2026-04-20 03:03 | 36.58052 | -72.50225 | 38184 ft | 484 kts | 339° |
| 2026-04-20 03:04 | 36.64561 | -72.52352 | 38183 ft | 483 kts | 339° |
| 2026-04-20 03:04 | 36.71126 | -72.54264 | 38182 ft | 487 kts | 345° |
| 2026-04-20 03:05 | 36.77937 | -72.54997 | 38174 ft | 492 kts | 350° |
| 2026-04-20 03:05 | 36.84743 | -72.55481 | 38175 ft | 491 kts | 350° |
| 2026-04-20 03:06 | 36.91512 | -72.55995 | 38174 ft | 491 kts | 349° |
| 2026-04-20 03:06 | 36.98324 | -72.56557 | 38178 ft | 491 kts | 349° |
| 2026-04-20 03:07 | 37.05142 | -72.57137 | 38174 ft | 491 kts | 349° |
| 2026-04-20 03:07 | 37.11948 | -72.57719 | 38175 ft | 490 kts | 349° |
| 2026-04-20 03:08 | 37.18754 | -72.58296 | 38176 ft | 490 kts | 349° |
| 2026-04-20 03:08 | 37.25560 | -72.58873 | 38176 ft | 489 kts | 348° |
| 2026-04-20 03:09 | 37.32311 | -72.59448 | 38176 ft | 489 kts | 348° |
| 2026-04-20 03:09 | 37.39107 | -72.60028 | 38176 ft | 489 kts | 348° |
| 2026-04-20 03:10 | 37.45893 | -72.60608 | 38176 ft | 488 kts | 348° |
| 2026-04-20 03:10 | 37.52682 | -72.61188 | 38175 ft | 489 kts | 348° |
| 2026-04-20 03:11 | 37.59468 | -72.61770 | 38174 ft | 489 kts | 348° |
| 2026-04-20 03:11 | 37.66270 | -72.62356 | 38171 ft | 490 kts | 348° |
| 2026-04-20 03:12 | 37.73100 | -72.62951 | 38196 ft | 501 kts | 348° |
| 2026-04-20 03:12 | 37.80129 | -72.63560 | 38201 ft | 509 kts | 348° |
| 2026-04-20 03:13 | 37.87217 | -72.64164 | 38195 ft | 510 kts | 348° |
| 2026-04-20 03:13 | 37.94299 | -72.64773 | 38184 ft | 509 kts | 348° |
| 2026-04-20 03:13 | 37.97743 | -72.65403 | 38172 ft | 490 kts | 334° |
| 2026-04-20 03:14 | 38.00784 | -72.67097 | 38190 ft | 469 kts | 319° |
| 2026-04-20 03:14 | 38.03336 | -72.69537 | 38193 ft | 453 kts | 307° |
| 2026-04-20 03:14 | 38.05341 | -72.72472 | 38179 ft | 434 kts | 294° |
| 2026-04-20 03:15 | 38.08520 | -72.78962 | 38188 ft | 435 kts | 293° |
| 2026-04-20 03:15 | 38.11823 | -72.85391 | 38188 ft | 438 kts | 294° |
| 2026-04-20 03:16 | 38.15207 | -72.91850 | 38186 ft | 440 kts | 294° |
| 2026-04-20 03:16 | 38.18588 | -72.98341 | 38185 ft | 439 kts | 293° |
| 2026-04-20 03:17 | 38.21899 | -73.04830 | 38184 ft | 437 kts | 293° |
| 2026-04-20 03:17 | 38.25183 | -73.11325 | 38184 ft | 436 kts | 292° |
| 2026-04-20 03:18 | 38.28461 | -73.17815 | 38185 ft | 435 kts | 292° |
| 2026-04-20 03:18 | 38.31724 | -73.24278 | 38188 ft | 433 kts | 292° |
| 2026-04-20 03:19 | 38.34981 | -73.30736 | 38184 ft | 433 kts | 292° |
| 2026-04-20 03:19 | 38.38235 | -73.37210 | 37933 ft | 436 kts | 292° |
| 2026-04-20 03:19 | 38.39868 | -73.40459 | 37467 ft | 433 kts | 292° |
| 2026-04-20 03:20 | 38.41466 | -73.43633 | 37025 ft | 427 kts | 291° |
| 2026-04-20 03:20 | 38.43061 | -73.46807 | 36574 ft | 422 kts | 291° |
| 2026-04-20 03:20 | 38.44639 | -73.49934 | 36115 ft | 418 kts | 291° |
| 2026-04-20 03:20 | 38.46243 | -73.53017 | 35667 ft | 416 kts | 292° |
| 2026-04-20 03:21 | 38.47849 | -73.56074 | 35210 ft | 413 kts | 291° |
| 2026-04-20 03:21 | 38.49444 | -73.59125 | 34761 ft | 415 kts | 291° |
| 2026-04-20 03:21 | 38.51048 | -73.62213 | 34327 ft | 419 kts | 291° |
| 2026-04-20 03:21 | 38.52653 | -73.65340 | 33882 ft | 420 kts | 290° |
| 2026-04-20 03:22 | 38.54236 | -73.68465 | 33432 ft | 417 kts | 290° |
| 2026-04-20 03:22 | 38.55802 | -73.71572 | 32974 ft | 415 kts | 290° |
| 2026-04-20 03:22 | 38.57361 | -73.74668 | 32532 ft | 413 kts | 290° |
| 2026-04-20 03:22 | 38.58895 | -73.77704 | 32088 ft | 410 kts | 290° |
| 2026-04-20 03:23 | 38.60439 | -73.80765 | 31636 ft | 408 kts | 290° |
| 2026-04-20 03:23 | 38.61967 | -73.83806 | 31185 ft | 405 kts | 290° |
| 2026-04-20 03:23 | 38.63484 | -73.86837 | 30735 ft | 402 kts | 289° |
| 2026-04-20 03:23 | 38.64986 | -73.89845 | 30283 ft | 400 kts | 289° |
| 2026-04-20 03:24 | 38.66478 | -73.92834 | 29833 ft | 397 kts | 289° |
| 2026-04-20 03:24 | 38.67961 | -73.95805 | 29384 ft | 395 kts | 289° |
| 2026-04-20 03:24 | 38.69435 | -73.98758 | 28937 ft | 392 kts | 289° |
| 2026-04-20 03:24 | 38.70907 | -74.01691 | 28488 ft | 390 kts | 290° |
| 2026-04-20 03:25 | 38.72377 | -74.04604 | 28045 ft | 386 kts | 290° |
| 2026-04-20 03:25 | 38.73827 | -74.07476 | 27594 ft | 381 kts | 290° |
| 2026-04-20 03:25 | 38.75255 | -74.10312 | 27139 ft | 377 kts | 290° |
| 2026-04-20 03:25 | 38.76697 | -74.13103 | 26683 ft | 377 kts | 294° |
| 2026-04-20 03:26 | 38.78467 | -74.15659 | 26232 ft | 388 kts | 303° |
| 2026-04-20 03:26 | 38.80504 | -74.17911 | 25794 ft | 395 kts | 310° |
| 2026-04-20 03:26 | 38.82843 | -74.19829 | 25335 ft | 402 kts | 317° |
| 2026-04-20 03:26 | 38.85286 | -74.21590 | 24901 ft | 401 kts | 318° |
| 2026-04-20 03:27 | 38.87727 | -74.23309 | 24452 ft | 398 kts | 319° |
| 2026-04-20 03:27 | 38.90151 | -74.25014 | 24000 ft | 395 kts | 319° |
| 2026-04-20 03:27 | 38.92553 | -74.26715 | 23552 ft | 392 kts | 318° |
| 2026-04-20 03:27 | 38.94928 | -74.28410 | 23105 ft | 389 kts | 318° |
| 2026-04-20 03:28 | 38.96489 | -74.29530 | 22810 ft | 387 kts | 318° |
| 2026-04-20 03:28 | 38.98838 | -74.31223 | 22362 ft | 385 kts | 318° |
| 2026-04-20 03:28 | 39.04225 | -74.35130 | 21319 ft | 379 kts | 318° |
| 2026-04-20 03:29 | 39.06516 | -74.36794 | 20873 ft | 377 kts | 317° |
| 2026-04-20 03:29 | 39.08054 | -74.37911 | 20569 ft | 374 kts | 317° |
| 2026-04-20 03:29 | 39.10284 | -74.39532 | 20131 ft | 372 kts | 317° |
| 2026-04-20 03:29 | 39.12564 | -74.41191 | 19681 ft | 370 kts | 317° |
| 2026-04-20 03:30 | 39.14767 | -74.42795 | 19239 ft | 368 kts | 318° |
| 2026-04-20 03:30 | 39.16987 | -74.44413 | 18793 ft | 365 kts | 317° |
| 2026-04-20 03:30 | 39.19195 | -74.46025 | 18339 ft | 362 kts | 317° |
| 2026-04-20 03:30 | 39.21377 | -74.47619 | 17895 ft | 360 kts | 317° |
| 2026-04-20 03:31 | 39.23563 | -74.49215 | 17448 ft | 357 kts | 318° |
| 2026-04-20 03:31 | 39.25720 | -74.50793 | 17000 ft | 355 kts | 318° |
| 2026-04-20 03:31 | 39.27859 | -74.52360 | 16554 ft | 352 kts | 319° |
| 2026-04-20 03:31 | 39.29981 | -74.53914 | 16106 ft | 349 kts | 319° |
| 2026-04-20 03:32 | 39.32081 | -74.55451 | 15659 ft | 346 kts | 319° |
| 2026-04-20 03:32 | 39.34132 | -74.56947 | 15094 ft | 328 kts | 319° |
| 2026-04-20 03:32 | 39.36069 | -74.58345 | 14488 ft | 308 kts | 319° |
| 2026-04-20 03:32 | 39.37877 | -74.59660 | 13923 ft | 298 kts | 319° |
| 2026-04-20 03:33 | 39.39668 | -74.60982 | 13352 ft | 294 kts | 319° |
| 2026-04-20 03:33 | 39.41435 | -74.62289 | 12780 ft | 289 kts | 320° |
| 2026-04-20 03:33 | 39.43142 | -74.63544 | 12212 ft | 278 kts | 320° |
| 2026-04-20 03:33 | 39.44801 | -74.64768 | 11632 ft | 270 kts | 321° |
| 2026-04-20 03:34 | 39.46415 | -74.65961 | 11059 ft | 264 kts | 322° |
| 2026-04-20 03:34 | 39.47997 | -74.67130 | 10605 ft | 259 kts | 323° |
| 2026-04-20 03:34 | 39.49537 | -74.68265 | 10169 ft | 251 kts | 323° |
| 2026-04-20 03:34 | 39.51034 | -74.69370 | 9739 ft | 246 kts | 324° |
| 2026-04-20 03:35 | 39.52516 | -74.70466 | 9318 ft | 243 kts | 325° |
| 2026-04-20 03:35 | 39.53988 | -74.71555 | 8895 ft | 243 kts | 326° |
| 2026-04-20 03:35 | 39.55453 | -74.72641 | 8470 ft | 242 kts | 327° |
| 2026-04-20 03:35 | 39.56915 | -74.73726 | 8046 ft | 241 kts | 327° |
| 2026-04-20 03:36 | 39.58365 | -74.74801 | 7644 ft | 240 kts | 327° |
| 2026-04-20 03:36 | 39.59789 | -74.75854 | 7249 ft | 238 kts | 327° |
| 2026-04-20 03:36 | 39.61223 | -74.76915 | 6849 ft | 236 kts | 327° |
| 2026-04-20 03:36 | 39.62653 | -74.77974 | 6455 ft | 235 kts | 328° |
| 2026-04-20 03:37 | 39.64078 | -74.79028 | 6101 ft | 239 kts | 328° |
| 2026-04-20 03:37 | 39.65525 | -74.80104 | 5815 ft | 239 kts | 328° |
| 2026-04-20 03:37 | 39.66969 | -74.81175 | 5524 ft | 237 kts | 328° |
| 2026-04-20 03:37 | 39.68397 | -74.82233 | 5244 ft | 235 kts | 328° |
| 2026-04-20 03:38 | 39.69791 | -74.83264 | 4968 ft | 232 kts | 328° |
| 2026-04-20 03:38 | 39.71193 | -74.84305 | 4685 ft | 231 kts | 328° |
| 2026-04-20 03:38 | 39.72582 | -74.85339 | 4408 ft | 229 kts | 328° |
| 2026-04-20 03:38 | 39.73959 | -74.86364 | 4140 ft | 227 kts | 328° |
| 2026-04-20 03:39 | 39.75328 | -74.87381 | 3864 ft | 226 kts | 329° |
| 2026-04-20 03:39 | 39.76689 | -74.88393 | 3599 ft | 224 kts | 329° |
| 2026-04-20 03:39 | 39.78039 | -74.89398 | 3359 ft | 222 kts | 329° |
| 2026-04-20 03:39 | 39.79164 | -74.90233 | 3136 ft | 219 kts | 329° |
| 2026-04-20 03:40 | 39.80230 | -74.91028 | 3083 ft | 210 kts | 329° |
| 2026-04-20 03:40 | 39.81240 | -74.91780 | 3031 ft | 208 kts | 329° |
| 2026-04-20 03:40 | 39.82469 | -74.92698 | 2991 ft | 200 kts | 329° |
| 2026-04-20 03:40 | 39.83666 | -74.93591 | 2999 ft | 197 kts | 329° |
| 2026-04-20 03:41 | 39.84853 | -74.94476 | 2994 ft | 197 kts | 329° |
| 2026-04-20 03:41 | 39.86040 | -74.95361 | 3005 ft | 197 kts | 329° |
| 2026-04-20 03:41 | 39.87236 | -74.96251 | 3001 ft | 198 kts | 329° |
| 2026-04-20 03:41 | 39.88407 | -74.97123 | 3025 ft | 188 kts | 329° |
| 2026-04-20 03:42 | 39.89516 | -74.97950 | 2996 ft | 179 kts | 329° |
| 2026-04-20 03:42 | 39.90525 | -74.98852 | 2984 ft | 172 kts | 311° |
| 2026-04-20 03:42 | 39.91060 | -75.00141 | 2980 ft | 152 kts | 298° |
| 2026-04-20 03:42 | 39.91466 | -75.01307 | 2974 ft | 137 kts | 280° |
| 2026-04-20 03:43 | 39.91129 | -75.02446 | 3037 ft | 144 kts | 245° |
| 2026-04-20 03:43 | 39.90838 | -75.03557 | 3002 ft | 120 kts | 270° |
| 2026-04-20 03:43 | 39.90662 | -75.04649 | 2993 ft | 125 kts | 262° |
| 2026-04-20 03:43 | 39.90426 | -75.05758 | 2831 ft | 127 kts | 261° |
| 2026-04-20 03:44 | 39.90197 | -75.06877 | 2669 ft | 128 kts | 262° |
| 2026-04-20 03:44 | 39.89968 | -75.08002 | 2484 ft | 127 kts | 261° |
| 2026-04-20 03:44 | 39.89746 | -75.09115 | 2321 ft | 128 kts | 261° |
| 2026-04-20 03:44 | 39.89524 | -75.10225 | 2157 ft | 129 kts | 260° |
| 2026-04-20 03:45 | 39.89299 | -75.11356 | 1990 ft | 129 kts | 259° |
| 2026-04-20 03:45 | 39.89074 | -75.12488 | 1819 ft | 129 kts | 259° |
| 2026-04-20 03:45 | 39.88848 | -75.13624 | 1646 ft | 129 kts | 258° |
| 2026-04-20 03:45 | 39.88622 | -75.14757 | 1467 ft | 129 kts | 258° |
| 2026-04-20 03:46 | 39.88396 | -75.15895 | 1300 ft | 130 kts | 257° |
| 2026-04-20 03:46 | 39.88169 | -75.17040 | 1119 ft | 130 kts | 257° |
| 2026-04-20 03:46 | 39.87941 | -75.18180 | 954 ft | 130 kts | 257° |
| 2026-04-20 03:46 | 39.87715 | -75.19318 | 783 ft | 129 kts | 257° |
| 2026-04-20 03:47 | 39.87489 | -75.20451 | 625 ft | 129 kts | 257° |
| 2026-04-20 03:47 | 39.87264 | -75.21585 | 429 ft | 129 kts | 256° |
| 2026-04-20 03:47 | 39.87039 | -75.22708 | 269 ft | 128 kts | 256° |
| 2026-04-20 03:47 | 39.86819 | -75.23818 | 104 ft | 128 kts | 256° |
| 2026-04-20 03:48 | 39.86604 | -75.24911 | 30 ft | 115 kts | 256° |
| 2026-04-20 03:48 | 39.86471 | -75.25579 | 30 ft | 53 kts | 255° |
| 2026-04-20 03:48 | 39.86403 | -75.25923 | 30 ft | 25 kts | 255° |
| 2026-04-20 03:48 | 39.86367 | -75.26099 | 29 ft | 20 kts | 256° |
| 2026-04-20 03:49 | 39.86339 | -75.26276 | 30 ft | 20 kts | 265° |
| 2026-04-20 03:49 | 39.86350 | -75.26446 | 30 ft | 9 kts | 282° |
| 2026-04-20 03:49 | 39.86370 | -75.26533 | 29 ft | 12 kts | 291° |
| 2026-04-20 03:49 | 39.86438 | -75.26604 | 30 ft | 14 kts | 342° |
| 2026-04-20 03:50 | 39.86538 | -75.26641 | 30 ft | 16 kts | 345° |
| 2026-04-20 03:50 | 39.86654 | -75.26675 | 30 ft | 18 kts | 348° |
| 2026-04-20 03:50 | 39.86779 | -75.26712 | 30 ft | 14 kts | 346° |
| 2026-04-20 03:50 | 39.86800 | -75.26719 | 30 ft | 2 kts | 345° |
| 2026-04-20 03:51 | 39.86825 | -75.26727 | 30 ft | 5 kts | 345° |
| 2026-04-20 03:51 | 39.86862 | -75.26700 | 30 ft | 13 kts | 61° |
| 2026-04-20 03:51 | 39.86894 | -75.26556 | 30 ft | 17 kts | 76° |
| 2026-04-20 03:51 | 39.86922 | -75.26407 | 30 ft | 17 kts | 76° |
| 2026-04-20 03:52 | 39.86951 | -75.26258 | 30 ft | 17 kts | 76° |
| 2026-04-20 03:52 | 39.86979 | -75.26109 | 30 ft | 17 kts | 76° |
| 2026-04-20 03:52 | 39.87007 | -75.25961 | 30 ft | 17 kts | 76° |
| 2026-04-20 03:52 | 39.87033 | -75.25811 | 30 ft | 17 kts | 82° |
| 2026-04-20 03:53 | 39.87049 | -75.25660 | 30 ft | 17 kts | 78° |
| 2026-04-20 03:53 | 39.87073 | -75.25510 | 30 ft | 17 kts | 83° |
| 2026-04-20 03:53 | 39.87095 | -75.25359 | 30 ft | 17 kts | 75° |
| 2026-04-20 03:53 | 39.87126 | -75.25211 | 30 ft | 17 kts | 75° |
| 2026-04-20 03:54 | 39.87155 | -75.25063 | 30 ft | 17 kts | 75° |
| 2026-04-20 03:54 | 39.87182 | -75.24928 | 30 ft | 13 kts | 75° |
| 2026-04-20 03:54 | 39.87214 | -75.24838 | 29 ft | 9 kts | 33° |
| 2026-04-20 03:54 | 39.87251 | -75.24815 | 30 ft | 0 kts | 30° |
| 2026-04-20 03:55 | 39.87261 | -75.24817 | 30 ft | 6 kts | 345° |
| 2026-04-20 03:56 | 39.87259 | -75.24870 | 29 ft | 6 kts | 229° |
| 2026-04-20 03:56 | 39.87222 | -75.24887 | 30 ft | 5 kts | 203° |
| 2026-04-20 03:56 | 39.87194 | -75.24926 | 30 ft | 7 kts | 249° |
| 2026-04-20 03:56 | 39.87218 | -75.24967 | 30 ft | 7 kts | 342° |
| 2026-04-20 03:57 | 39.87270 | -75.24985 | 30 ft | 9 kts | 345° |
| 2026-04-20 03:57 | 39.87327 | -75.25005 | 30 ft | 6 kts | 341° |
| 2026-04-20 03:57 | 39.87365 | -75.25026 | 30 ft | 6 kts | 335° |
| 2026-04-20 03:57 | 39.87383 | -75.25037 | 30 ft | 3 kts | 335° |
| 2026-04-20 03:58 | 39.87398 | -75.25047 | 30 ft | 3 kts | 335° |
| 2026-04-20 03:58 | 39.87403 | -75.25049 | 30 ft | 0 kts | 335° |